CES weather

Cessnock Airport
New South Wales, Australia

Public forecast

Using degrees Celsius for public forecast. Weather courtesy of forecast.io.

METAR (pilot weather report)

Closest report is Newcastle Airport, 24.8 nm (46.0 km) E. Retrieved 2019/03/18 18:00 UTC (8 minutes ago):

YWLM 181800Z AUTO 00000KT //// // OVC094 19/18 Q1010

TAF (pilot weather forecast)

Closest forecast is Newcastle Airport, 24.8 nm (46.0 km) E. Retrieved 2019/03/18 18:36 UTC (0 seconds ago):

TAF YWLM 181727Z 1818/1918 27005KT 9999 -SHRA FEW015 BKN025 FM190000 23012KT 9999 -SHRA SCT015 BKN025 FM190400 18012KT 9999 -SHRA SCT015 BKN025 FM190800 20006KT 9999 -SHRA SCT010 BKN020 INTER 1904/1918 5000 SHRA BKN014 PROB30 1818/1821 3000 BR BKN005 PROB30 INTER 1906/1910 VRB20G30KT 2000 TSRA SCT010 SCT040CB